Aktualne dane pomiarowe

Uwaga, wersja testowa! Automatyczne pobieranie danych za pomocą narzędzi lub skryptów to umożliwiających jest zabronione.

Dane meteo z obszaru Polski uzyskane na podstawie depesz SYNOP pobieranych co godzinę z NWS. Najedź myszką na symbol przedstawiony w tabeli, aby uzyskać informacje co do jego znaczenia. Prosimy pamiętać, że to testowa wersja strony, która jeszcze nie jest ukończona. Stworzono również jest krótki FAQ dotyczący korzystania z tej podstrony Anomalie temperatury w chwili obecnej odniesione są do okresu referencyjnego 1951-2016. Okres ten będzie później zmieniony na 1981-2010. Kliknij ikonę aby pobrać plik CSV. Kliknij ikonę aby wygenerować mapę synoptyczną dla danego terminu.

Wybierz Datę:    

        

Łódź (12465)

Dane terminowe dla wybranej stacji. Kliknij datę, aby otrzymać dane z tego terminu dla wszystkich stacji.

TemperaturaZachmurzenieWiatrCiśnienieOpadyPogoda
 Data t td wb tx tn tg rh  Nt Nl Cl Cm Ch ws wd g1 g2 wx mslp ppp ch 24h 12h t ww ww w1 w2  
2019-07-20 23:00:00 19.2 13.6 15.5--- 7020.0wx-wx2wx--21015.9 994.6 0.2---------
2019-07-20 22:00:00 19.9 13.6 15.8--- 6720.0wx-wx2wx--21015.9 994.7 0.7---------
2019-07-20 21:00:00 21.0 13.5 16.2--- 6220.0wx-wx2wx---1015.7 994.6 0.8---------
2019-07-20 20:00:00 19.8 13.3 15.6--- 6620.0wx-wx2wx--21015.6 994.4 0.5---------
2019-07-20 19:00:00 21.7 14.2 16.9--- 6220.0wx-wx1wx--11015.1 994.0 -0.1---------
2019-07-20 18:00:00 25.1 14.6 18.4 29.4 19.2- 5220.0wxwxwxwx0--801014.6 993.8 -0.3- 0.012------
2019-07-20 17:00:00 27.9 11.1 17.8--- 3520.0wxwxwxwx1wx--11014.5 993.9 -0.5---------
2019-07-20 16:00:00 28.3 10.6 17.8--- 3320.0wxwxwxwx2wx--21014.7 994.1 -0.5---------
2019-07-20 15:00:00 28.2 10.0 17.5--- 3220.0wxwxwxwx3wx---1014.7 994.1 -0.8---------
2019-07-20 14:00:00 28.0 11.2 17.9--- 3520.0wxwxwxwx2wx--21015.0 994.4 -0.7---------
2019-07-20 13:00:00 27.4 12.3 18.2--- 3920.0wxwxwxwx2wx-821015.3 994.6 -0.5---------
2019-07-20 12:00:00 25.7 13.3 18.0--- 4620.0wxwxwxwxwx1wx--11015.7 994.9 -0.4- 0.06------
2019-07-20 11:00:00 25.7 11.9 17.3--- 4220.0wxwxwxwx5wx--51015.9 995.1 -0.2---------
2019-07-20 10:00:00 25.9 12.8 17.8--- 4420.0wxwxwx3wx--31015.9 995.1 -0.2---------
2019-07-20 09:00:00 24.6 12.0 16.9--- 4520.0wxwxwxwx3wx--31016.2 995.3 0.2---------
2019-07-20 08:00:00 23.7 13.9 17.5--- 5420.0wxwxwxwx2wx--21016.3 995.3 0.4---------
2019-07-20 07:00:00 20.4 14.2 16.3--- 6820.0wx-wx1wx--11016.5 995.3 0.6---------
2019-07-20 06:00:00 19.2 15.1 16.4 21.8 15.1 14 7720.0wx-wx3wx--31016.4 995.1 0.7--12----- 8.1
2019-07-20 05:00:00 18.1 15.2 16.1--- 8319.0wx-wx1wx---1016.3 994.9 0.7---------
2019-07-20 04:00:00 16.9 15.1 15.6--- 8917.0wx-wx1wx--11016.2 994.7 0.7---------
2019-07-20 03:00:00 15.6 14.1 14.5--- 9120.0wx-wxwx1---11015.9 994.4 0.3---------
2019-07-20 02:00:00 15.8 14.0 14.5--- 8920.0wx-wxwx1wx--11015.7 994.2 0.2---------
2019-07-20 01:00:00 15.8 13.8 14.4--- 8820.0wx-wx1wx--11015.5 994.0 0.0---------
2019-07-20 00:00:00 16.2 13.9 14.6--- 8620.0wx-wx1wx--11015.6 994.1 0.2--6wx-w1--
2019-07-19 23:00:00 17.2 14.3 15.2--- 8320.0wxwxwx1wx---1015.4 994.0 0.2---------
2019-07-19 22:00:00 18.1 14.4 15.6--- 7920.0wxwxwx0---01015.3 994.0 0.3---------
2019-07-19 21:00:00 18.0 14.3 15.5--- 7920.0wx-wx2wx--21015.3 993.9 0.8---wx-w1--
2019-07-19 20:00:00 18.5 15.2 16.2--- 8120.0wx-wx0---01015.1 993.8 0.7---wx---
2019-07-19 19:00:00 20.5 13.1 15.8--- 6320.0wxwxwxwx4wx--41014.9 993.7 0.7---wx---
2019-07-19 18:00:00 21.7 14.2 16.9 28.2 19.2- 6220.0wx-wx2wx-821014.2 993.1 0.3- 0.012wx-w1--
2019-07-19 17:00:00 22.4 13.8 16.9--- 5820.0wx-wxwx2wx--21014.1 993.1 -0.3---------
2019-07-19 16:00:00 23.4 10.9 15.9--- 4520.0wxwxwxwxwx1wx--11013.9 993.0 0.0---------
2019-07-19 15:00:00 24.0 10.7 16.1--- 4320.0wxwxwxwx2wx-821013.7 992.8 0.7---wx-w1--
2019-07-19 14:00:00 20.2 14.4 16.4--- 6920.0wxwxwxwx1---11014.6 993.4 0.9---wx---
2019-07-19 13:00:00 22.9 10.4 15.5--- 4520.0wxwxwx7wx-871014.0 993.0 0.4---------
2019-07-19 12:00:00 27.8 6.6 15.9--- 2620.0wxwxwxwx2wx--21012.7 992.1 -0.6- 0.06------
2019-07-19 11:00:00 26.5 6.1 15.2--- 2720.0wxwxwxwx4wx--41013.2 992.5 -0.5---------
2019-07-19 10:00:00 26.6 6.7 15.4--- 2820.0wxwxwxwx3wx--31013.3 992.6 -0.4---------
2019-07-19 09:00:00 26.3 6.4 15.2--- 2820.0wxwxwxwxwx2wx--21013.4 992.7 -0.3---------
2019-07-19 08:00:00 25.1 5.9 14.5--- 2920.0wxwxwxwxwx3wx--31013.8 993.0 0.1---------
2019-07-19 07:00:00 24.1 7.8 14.9--- 3520.0wx-wx1wx--11013.9 993.0 0.1---------
2019-07-19 06:00:00 19.8 9.7 13.8 23.4 8.4 6 5220.0wxwxwxwx1wx--11014.2 993.0 0.3- 0.012----- 11.8
2019-07-19 05:00:00 15.8 9.5 11.9--- 6620.0wxwxwxwx1wx--11014.4 992.9 0.2---------
2019-07-19 04:00:00 10.6 9.2 9.6--- 9120.0wxwxwxwx0---01014.8 992.9 0.1----22----
2019-07-19 03:00:00 8.7 6.8 7.4--- 8820.0wx-wx1wx--11014.7 992.7 0.0----22----
2019-07-19 02:00:00 9.2 7.8 8.2--- 9120.0wx-wx1wx--11014.7 992.7 0.0----22----
2019-07-19 01:00:00 10.0 8.1 8.7--- 8820.0wx-1wx--11014.7 992.8 0.0---------
2019-07-19 00:00:00 12.3 8.0 9.6--- 7520.0wx-1wx--11014.5 992.7 0.2- 0.06------
1.8 ms

 

Print Friendly, PDF & Email